Time;durP1;ratioP1;P1;durP2;ratioP2;P2;SDS_P1;SDS_P2;PMS_P1;PMS_P2;Temp;Humidity;BMP_temperature;BMP_pressure;BME280_temperature;BME280_humidity;BME280_pressure;Samples;Min_cycle;Max_cycle;Signal;HPM_P1;HPM_P2
2022/02/06 00:00:01;;;;;;;;;;;9.50;99.90;;;9.72;100.00;100904.34;5114468;28;20071;-62
2022/02/06 00:02:34;;;;;;;54.05;10.52;;;9.60;99.90;;;9.68;100.00;100895.56;5113827;28;20331;-62
2022/02/06 00:05:03;;;;;;;62.42;12.27;;;9.50;99.90;;;9.74;100.00;100897.31;5114338;28;20511;-62
2022/02/06 00:07:32;;;;;;;50.95;10.85;;;9.50;99.90;;;9.73;100.00;100877.97;5113736;28;20048;-62
2022/02/06 00:10:00;;;;;;;62.20;11.13;;;9.50;99.90;;;9.76;100.00;100859.44;5113847;28;20112;-62
2022/02/06 00:12:34;;;;;;;56.38;11.23;;;9.50;99.90;;;9.70;100.00;100862.09;5113680;28;20055;-62
2022/02/06 00:15:04;;;;;;;60.17;11.60;;;9.50;99.90;;;9.74;100.00;100878.81;5113612;28;20115;-62
2022/02/06 00:17:33;;;;;;;51.75;11.10;;;9.50;99.90;;;9.65;100.00;100857.72;5113827;28;20043;-62
2022/02/06 00:20:02;;;;;;;49.67;11.40;;;9.50;99.90;;;9.57;100.00;100852.44;5113725;28;20161;-62
2022/02/06 00:22:35;;;;;;;56.67;11.45;;;9.50;99.90;;;9.71;100.00;100840.09;5112290;28;20385;-62
2022/02/06 00:25:17;;;;;;;53.53;10.98;;;9.50;99.90;;;9.59;100.00;100816.34;5113647;28;20039;-62
2022/02/06 00:28:04;;;;;;;72.88;11.98;;;9.50;99.90;;;9.71;100.00;100848.03;5113456;28;20039;-62
2022/02/06 00:30:39;;;;;;;57.00;12.70;;;9.50;99.90;;;9.60;100.00;100806.66;5113596;28;20047;-62
2022/02/06 00:33:12;;;;;;;45.45;10.80;;;9.60;99.90;;;9.71;100.00;100816.34;5113400;28;20504;-62
2022/02/06 00:36:05;;;;;;;55.67;11.95;;;9.50;99.90;;;9.71;100.00;100837.47;5113558;28;20063;-62
2022/02/06 00:39:04;;;;;;;57.72;11.73;;;9.50;99.90;;;9.69;100.00;100817.22;5113526;28;20393;-62
2022/02/06 00:41:25;;;;;;;54.05;10.00;;;9.50;99.90;;;9.71;100.00;100813.69;5113227;28;20040;-62
2022/02/06 00:43:54;;;;;;;53.92;11.40;;;9.50;99.90;;;9.73;100.00;100822.50;5113321;28;20069;-62
2022/02/06 00:46:24;;;;;;;57.90;11.57;;;9.50;99.90;;;9.74;100.00;100799.56;5128976;27;20378;-62
2022/02/06 00:48:56;;;;;;;70.22;12.02;;;9.50;99.90;;;9.57;100.00;100769.69;5113515;28;20044;-62
2022/02/06 00:51:31;;;;;;;67.03;13.18;;;9.60;99.90;;;9.82;100.00;100803.09;5113224;28;20051;-62
2022/02/06 00:54:00;;;;;;;62.85;12.10;;;9.60;99.90;;;9.79;100.00;100758.22;5112979;28;20047;-62
2022/02/06 00:56:29;;;;;;;64.38;12.73;;;9.60;99.90;;;9.79;100.00;100792.53;5113155;28;20094;-62
2022/02/06 00:58:58;;;;;;;65.57;12.82;;;9.60;99.90;;;9.75;100.00;100770.56;5113364;27;20043;-62
2022/02/06 01:01:29;;;;;;;63.50;12.23;;;9.60;99.90;;;9.92;100.00;100810.09;5112925;28;20103;-62
2022/02/06 01:03:57;;;;;;;62.05;11.40;;;9.70;99.90;;;9.86;100.00;100779.31;5113031;28;20051;-62
2022/02/06 01:06:26;;;;;;;73.53;12.95;;;9.70;99.90;;;9.84;100.00;100775.78;5113033;28;20039;-62
2022/02/06 01:08:54;;;;;;;70.72;12.13;;;9.70;99.90;;;9.86;100.00;100784.59;5113506;28;20044;-62
2022/02/06 01:11:23;;;;;;;61.58;12.07;;;9.70;99.90;;;9.91;100.00;100780.16;5117132;28;20082;-62
2022/02/06 01:14:01;;;;;;;69.55;13.55;;;9.70;99.90;;;9.88;100.00;100771.38;5117193;28;20079;-62
2022/02/06 01:16:35;;;;;;;66.43;12.18;;;9.70;99.90;;;9.61;100.00;100700.16;5117252;27;20512;-62
2022/02/06 01:19:07;;;;;;;74.60;13.48;;;9.70;99.90;;;9.95;100.00;100759.88;5117052;28;20512;-62
2022/02/06 01:21:46;;;;;;;60.25;12.23;;;9.70;99.90;;;9.83;100.00;100733.53;5117080;28;20040;-62
2022/02/06 01:24:18;;;;;;;65.97;13.43;;;9.70;99.90;;;9.88;100.00;100743.19;5116920;28;20050;-62
2022/02/06 01:26:51;;;;;;;71.72;12.00;;;9.70;99.90;;;9.88;100.00;100756.41;5115886;28;20413;-62
2022/02/06 01:29:31;;;;;;;62.50;11.68;;;9.70;99.90;;;9.88;100.00;100727.34;5117065;28;20051;-62
2022/02/06 01:32:05;;;;;;;64.60;12.98;;;9.70;99.90;;;9.92;100.00;100747.59;5132856;27;20075;-62
2022/02/06 01:34:41;;;;;;;64.85;11.93;;;9.70;99.90;;;9.94;100.00;100743.19;5116714;28;20039;-63
2022/02/06 01:37:19;;;;;;;86.65;13.23;;;9.80;99.90;;;9.97;100.00;100742.28;5116898;28;20497;-62
2022/02/06 01:40:04;;;;;;;67.43;12.98;;;9.80;99.90;;;9.96;100.00;100749.34;5116789;28;20043;-62
2022/02/06 01:42:38;;;;;;;63.53;12.75;;;9.80;99.90;;;9.98;100.00;100751.97;5116577;28;20044;-63
2022/02/06 01:45:32;;;;;;;69.30;13.10;;;9.80;99.90;;;9.92;100.00;100725.56;5116645;28;20101;-62
2022/02/06 02:02:21;;;;;;;67.72;13.32;;;9.80;99.90;;;9.97;100.00;100724.66;5116207;28;20439;-62
2022/02/06 02:05:18;;;;;;;77.60;13.52;;;9.80;99.90;;;10.00;100.00;100713.22;5116304;28;20138;-63
2022/02/06 02:13:44;;;;;;;73.22;14.05;;;9.80;99.90;;;9.81;100.00;100693.03;5111463;28;20462;-63
2022/02/06 02:16:41;;;;;;;62.72;12.70;;;9.80;99.90;;;9.97;100.00;100676.22;5115962;28;20557;-62
2022/02/06 02:25:13;;;;;;;59.47;12.45;;;9.80;99.90;;;9.98;100.00;100702.66;5114040;28;20051;-63
2022/02/06 02:27:59;;;;;;;61.80;12.75;;;9.80;99.90;;;9.93;100.00;100685.94;5115910;28;20112;-63
2022/02/06 02:30:54;;;;;;;53.90;10.73;;;9.70;99.90;;;9.89;100.00;100689.47;5115713;28;20055;-62
2022/02/06 02:47:22;;;;;;;63.17;12.43;;;9.70;99.90;;;9.83;100.00;100668.34;5115425;28;20055;-62
2022/02/06 02:49:54;;;;;;;63.30;11.70;;;9.60;99.90;;;9.74;100.00;100631.44;5115584;28;20063;-62
2022/02/06 02:52:46;;;;;;;72.72;12.82;;;9.60;99.90;;;9.82;100.00;100650.78;5115289;28;20533;-61
2022/02/06 02:55:27;;;;;;;65.10;12.20;;;9.60;99.90;;;9.73;100.00;100627.06;5115343;28;20052;-61
2022/02/06 02:58:05;;;;;;;69.20;12.55;;;9.60;99.90;;;9.80;100.00;100599.72;5115065;28;20447;-61
2022/02/06 03:00:54;;;;;;;67.57;13.40;;;9.60;99.90;;;9.87;100.00;100627.00;5115289;28;20404;-60
2022/02/06 03:03:27;;;;;;;63.80;12.68;;;9.70;99.90;;;9.82;100.00;100621.72;5115101;28;20067;-60
2022/02/06 03:05:57;;;;;;;69.70;13.55;;;9.60;99.90;;;9.88;100.00;100604.94;5115121;28;20044;-60
2022/02/06 03:08:27;;;;;;;60.35;12.82;;;9.70;99.90;;;9.82;100.00;100600.59;5114972;28;20106;-60
2022/02/06 03:10:59;;;;;;;57.78;11.40;;;9.70;99.90;;;9.81;100.00;100600.59;5114900;27;20040;-60
2022/02/06 03:13:36;;;;;;;66.18;12.68;;;9.60;99.90;;;8.97;100.00;100464.66;5115149;28;20055;-60
2022/02/06 03:16:17;;;;;;;59.45;11.25;;;9.70;99.90;;;9.83;100.00;100627.88;5114779;28;20035;-60
2022/02/06 03:18:52;;;;;;;61.15;11.13;;;9.70;99.90;;;9.84;100.00;100612.03;5130576;27;20493;-61
2022/02/06 03:21:24;;;;;;;67.38;13.00;;;9.70;99.90;;;9.84;100.00;100582.97;5114971;28;20052;-61
2022/02/06 03:23:55;;;;;;;58.05;12.13;;;9.60;99.90;;;9.68;100.00;100580.41;5114863;28;20443;-61
2022/02/06 03:26:26;;;;;;;63.58;11.85;;;9.60;99.90;;;9.79;100.00;100563.59;5114750;28;20112;-60
2022/02/06 03:28:56;;;;;;;56.28;11.85;;;9.60;99.90;;;9.87;100.00;100582.09;5114877;28;20040;-60
2022/02/06 03:31:25;;;;;;;59.17;12.63;;;9.60;99.90;;;9.86;100.00;100585.59;5114408;28;20093;-60
2022/02/06 03:33:53;;;;;;;64.93;12.73;;;9.70;99.90;;;9.82;100.00;100592.66;5113517;28;20055;-60
2022/02/06 03:36:22;;;;;;;71.13;13.52;;;9.60;99.90;;;9.91;100.00;100602.31;5114862;28;20049;-60
2022/02/06 03:38:52;;;;;;;70.60;13.48;;;9.70;99.90;;;9.77;100.00;100589.19;5114301;28;20043;-61
2022/02/06 03:41:24;;;;;;;74.63;12.20;;;9.70;99.90;;;9.84;100.00;100540.69;5114405;28;20040;-61
2022/02/06 03:44:00;;;;;;;65.93;12.07;;;9.70;99.90;;;9.82;100.00;100578.56;5114160;28;20097;-60
2022/02/06 03:46:32;;;;;;;66.03;11.35;;;9.70;99.90;;;9.81;100.00;100553.91;5114275;28;20036;-60
2022/02/06 03:49:11;;;;;;;72.65;12.88;;;9.70;99.90;;;9.71;100.00;100562.81;5114314;28;20084;-61
2022/02/06 03:51:40;;;;;;;70.53;12.25;;;9.70;99.90;;;9.91;100.00;100599.66;5114175;28;20575;-61
2022/02/06 03:54:11;;;;;;;56.25;11.07;;;9.70;99.90;;;9.89;100.00;100581.16;5113897;28;20128;-60
2022/02/06 03:56:41;;;;;;;62.35;11.93;;;9.70;99.90;;;9.93;100.00;100553.84;5113943;28;20053;-61
2022/02/06 03:59:09;;;;;;;65.85;13.27;;;9.70;99.90;;;9.95;100.00;100573.19;5114176;28;20035;-61
2022/02/06 04:01:38;;;;;;;69.55;12.35;;;9.80;99.90;;;9.80;100.00;100546.88;5114095;28;20096;-61
2022/02/06 04:04:06;;;;;;;61.70;12.65;;;9.80;99.90;;;9.92;100.00;100536.25;5113897;28;20069;-61
2022/02/06 04:06:35;;;;;;;77.35;11.63;;;9.80;99.90;;;9.94;100.00;100573.22;5113855;28;20089;-61
2022/02/06 04:09:08;;;;;;;72.45;12.10;;;9.70;99.90;;;9.97;100.00;100559.97;5113784;28;20484;-61
2022/02/06 04:11:47;;;;;;;67.63;13.00;;;9.80;99.90;;;9.94;100.00;100539.75;5114010;28;20485;-61
2022/02/06 04:14:27;;;;;;;71.18;13.10;;;9.80;99.90;;;9.96;100.00;100556.47;5113822;28;20048;-61
2022/02/06 04:17:01;;;;;;;78.25;13.10;;;9.80;99.90;;;9.94;100.00;100523.03;5113643;27;20512;-61
2022/02/06 04:19:29;;;;;;;72.53;12.48;;;9.80;99.90;;;9.96;100.00;100518.59;5113603;27;20039;-61
2022/02/06 04:21:59;;;;;;;65.82;12.10;;;9.80;99.90;;;9.99;100.00;100527.38;5113453;28;20549;-61
2022/02/06 04:24:27;;;;;;;72.07;12.93;;;9.80;99.90;;;10.05;99.66;100515.88;5113456;28;20485;-61
2022/02/06 04:26:56;;;;;;;65.10;12.43;;;9.90;99.90;;;9.33;99.52;100406.38;5112313;28;20126;-60
2022/02/06 04:29:26;;;;;;;60.63;12.38;;;9.80;99.90;;;9.55;99.30;100426.47;5113361;28;20055;-60
2022/02/06 04:31:54;;;;;;;74.18;13.23;;;9.90;99.90;;;10.03;99.38;100517.66;5113396;28;20047;-61
2022/02/06 04:34:24;;;;;;;65.43;12.55;;;9.80;99.90;;;10.03;99.41;100507.97;5113311;28;20047;-60
2022/02/06 04:37:01;;;;;;;61.38;13.18;;;9.90;99.90;;;10.04;99.23;100478.00;5113328;28;20493;-60
2022/02/06 04:42:25;;;;;;;66.88;13.38;;;9.80;99.90;;;10.03;99.31;100465.69;5113688;28;20122;-61
2022/02/06 04:51:16;;;;;;;61.13;12.43;;;9.80;99.90;;;10.05;98.72;100481.53;5111466;28;20063;-60
2022/02/06 04:53:44;;;;;;;65.93;11.82;;;9.90;99.90;;;9.87;98.96;100436.81;5113051;28;20054;-60
2022/02/06 05:21:49;;;;;;;61.30;11.23;;;10.00;99.90;;;10.19;98.94;100418.91;5120390;27;20043;-62
2022/02/06 05:24:45;;;;;;;58.95;11.27;;;10.00;99.90;;;10.16;99.05;100407.50;5112810;28;20044;-62
2022/02/06 05:30:03;;;;;;;58.17;10.88;;;9.90;99.90;;;10.14;99.60;100414.56;5099149;28;20408;-62
2022/02/06 05:32:39;;;;;;;60.30;12.10;;;9.90;99.90;;;9.89;99.60;100372.47;5113114;28;20087;-62
2022/02/06 05:35:09;;;;;;;60.55;11.93;;;9.90;99.90;;;10.18;99.64;100405.72;5112845;28;20113;-62
2022/02/06 05:37:40;;;;;;;59.63;12.13;;;10.00;99.90;;;10.14;99.37;100386.38;5112802;28;20051;-62
2022/02/06 05:40:10;;;;;;;;;;;9.90;99.90;;;10.17;99.35;100374.88;5113190;28;20450;-62
2022/02/06 05:42:38;;;;;;;68.20;13.02;;;10.00;99.90;;;10.00;99.86;100378.56;5112831;28;19966;-62
2022/02/06 05:45:07;;;;;;;62.92;11.90;;;10.00;99.90;;;10.16;99.20;100381.94;5112485;28;20032;-62
2022/02/06 05:47:35;;;;;;;53.38;12.23;;;10.00;99.90;;;10.09;99.60;100345.84;5112828;28;20040;-63
2022/02/06 05:50:05;;;;;;;59.92;11.27;;;9.90;99.90;;;9.96;99.37;100321.34;5112758;28;20047;-63
2022/02/06 05:52:35;;;;;;;68.70;11.85;;;9.90;99.90;;;10.08;99.31;100367.03;5112721;28;20438;-62
2022/02/06 05:55:05;;;;;;;69.60;12.55;;;10.00;99.90;;;10.16;99.17;100373.13;5112225;28;20083;-62
2022/02/06 05:57:33;;;;;;;60.03;11.90;;;10.00;99.90;;;10.12;99.60;100318.56;5115589;28;20043;-63
2022/02/06 06:00:02;;;;;;;69.35;12.73;;;10.00;99.90;;;10.17;99.33;100351.09;5116434;28;20092;-62
2022/02/06 06:02:39;;;;;;;69.60;13.75;;;10.00;99.90;;;10.17;99.33;100366.94;5116461;28;20059;-62
2022/02/06 06:05:09;;;;;;;68.28;12.07;;;10.00;99.90;;;10.15;99.44;100374.00;5116575;27;20477;-63
2022/02/06 06:07:43;;;;;;;62.05;12.88;;;10.00;99.90;;;10.21;99.01;100366.03;5114822;28;20094;-62
2022/02/06 06:10:12;;;;;;;64.97;12.40;;;10.00;99.90;;;9.54;98.73;100253.13;5116212;28;20043;-63
2022/02/06 06:12:41;;;;;;;77.50;14.13;;;10.00;99.90;;;10.14;98.76;100345.84;5132002;27;20493;-62
2022/02/06 06:15:12;;;;;;;61.35;12.10;;;10.00;99.90;;;10.17;98.47;100336.13;5116050;28;20146;-62
2022/02/06 06:17:41;;;;;;;78.90;14.15;;;10.00;99.90;;;10.03;98.55;100275.47;5116032;28;20504;-62
2022/02/06 06:20:14;;;;;;;61.42;12.18;;;10.00;99.90;;;10.17;98.40;100322.91;5115888;28;20123;-62
2022/02/06 06:22:44;;;;;;;62.88;12.50;;;10.00;99.90;;;10.14;98.45;100322.06;5115895;28;20047;-62
2022/02/06 06:25:12;;;;;;;68.80;13.30;;;10.00;99.90;;;10.19;98.63;100305.25;5115966;27;20058;-63
2022/02/06 06:27:41;;;;;;;59.67;11.35;;;10.00;99.90;;;10.16;98.25;100312.34;5115771;28;20071;-62
2022/02/06 06:30:10;;;;;;;64.63;11.38;;;10.00;99.90;;;10.16;98.38;100296.50;5116098;28;20035;-62
2022/02/06 06:32:40;;;;;;;71.22;12.65;;;10.00;99.90;;;10.22;98.42;100293.78;5115585;28;20047;-62
2022/02/06 06:35:09;;;;;;;56.17;12.70;;;10.00;99.90;;;10.22;98.51;100283.22;5115792;28;20071;-62
2022/02/06 06:37:41;;;;;;;71.32;12.57;;;10.00;99.90;;;10.10;98.44;100272.78;5115959;28;20047;-62
2022/02/06 06:40:11;;;;;;;68.63;12.20;;;10.00;99.90;;;9.98;98.55;100266.75;5115593;28;20042;-62
2022/02/06 06:42:40;;;;;;;61.60;11.48;;;10.00;99.90;;;10.07;98.96;100259.56;5115755;28;20051;-62
2022/02/06 06:45:10;;;;;;;63.85;12.68;;;10.00;99.90;;;10.21;98.73;100271.75;5115408;28;20068;-62
2022/02/06 06:47:39;;;;;;;61.55;11.90;;;10.00;99.90;;;10.01;98.40;100220.91;5115666;28;20073;-62
2022/02/06 06:50:08;;;;;;;59.70;11.70;;;10.10;99.90;;;10.27;98.37;100281.38;5115370;28;20134;-62
2022/02/06 06:52:36;;;;;;;61.35;11.07;;;10.10;99.90;;;10.31;98.37;100269.88;5115239;28;20516;-62
2022/02/06 06:55:07;;;;;;;58.38;11.20;;;10.10;99.90;;;10.26;98.58;100240.84;5115152;28;20051;-62
2022/02/06 06:57:41;;;;;;;60.83;10.90;;;10.10;99.90;;;10.28;98.66;100262.00;5115264;28;20039;-63
2022/02/06 07:00:24;;;;;;;59.50;11.23;;;10.10;99.90;;;10.33;98.80;100270.72;5115459;28;20043;-62
2022/02/06 07:02:53;;;;;;;63.22;11.88;;;10.10;99.90;;;10.31;98.63;100223.19;5115118;28;20039;-63
2022/02/06 07:05:21;;;;;;;74.55;12.38;;;10.10;99.90;;;10.30;98.79;100239.06;5115045;27;20074;-62
2022/02/06 07:07:50;;;;;;;67.63;12.32;;;10.10;99.90;;;10.31;99.14;100240.81;5114708;28;20489;-62
2022/02/06 07:10:18;;;;;;;59.72;12.05;;;10.10;99.90;;;10.29;99.31;100234.66;5114857;28;20035;-63
2022/02/06 07:12:53;;;;;;;70.75;11.98;;;10.10;99.90;;;10.16;99.54;100206.66;5115542;27;20074;-62
2022/02/06 07:15:21;;;;;;;67.88;13.25;;;10.10;99.90;;;10.30;99.75;100197.63;5114864;28;20485;-63
2022/02/06 07:17:51;;;;;;;55.08;11.63;;;10.10;99.90;;;10.01;100.00;100176.88;5114902;28;20048;-63
2022/02/06 07:20:19;;;;;;;67.18;14.02;;;10.10;99.90;;;10.33;100.00;100231.09;5114715;28;20052;-62
2022/02/06 07:22:48;;;;;;;66.65;12.35;;;10.10;99.90;;;10.29;100.00;100195.00;5113478;28;20091;-61
2022/02/06 07:25:16;;;;;;;62.85;12.20;;;10.10;99.90;;;10.24;100.00;100204.78;5114609;28;20039;-61
2022/02/06 07:27:49;;;;;;;56.17;11.38;;;10.00;99.90;;;10.20;100.00;100177.50;5114592;28;20075;-61
2022/02/06 07:30:19;;;;;;;62.42;12.02;;;10.10;99.90;;;10.25;100.00;100188.03;5114606;27;20579;-61
2022/02/06 07:32:48;;;;;;;55.83;10.85;;;10.10;99.90;;;10.17;100.00;100166.13;5114562;28;20043;-60
2022/02/06 07:35:17;;;;;;;61.92;12.38;;;10.00;99.90;;;10.28;100.00;100191.50;5113206;28;20090;-61
2022/02/06 07:37:51;;;;;;;52.85;11.10;;;10.10;99.90;;;10.25;100.00;100173.03;5114563;28;20504;-61
2022/02/06 07:40:20;;;;;;;65.10;11.98;;;10.00;99.90;;;10.21;100.00;100144.03;5114887;28;20099;-61
2022/02/06 07:42:49;;;;;;;48.97;11.35;;;10.00;99.90;;;10.24;100.00;100152.78;5114305;28;20036;-61
2022/02/06 07:45:26;;;;;;;50.90;11.23;;;10.00;99.90;;;10.13;100.00;100107.16;5113070;28;20043;-61
2022/02/06 07:47:55;;;;;;;45.28;9.73;;;10.10;99.90;;;10.10;100.00;100101.06;5114120;28;20525;-61
2022/02/06 07:50:23;;;;;;;57.67;10.68;;;10.10;99.90;;;10.24;100.00;100123.72;5114637;28;20050;-61
2022/02/06 07:52:51;;;;;;;50.75;11.75;;;10.10;99.90;;;10.22;100.00;100122.00;5114066;28;20048;-61
2022/02/06 07:55:20;;;;;;;51.08;10.90;;;10.00;99.90;;;9.94;100.00;100061.63;5114169;28;20075;-61
2022/02/06 07:57:49;;;;;;;56.65;11.77;;;10.00;99.90;;;10.24;100.00;100101.72;5114268;28;20048;-62
2022/02/06 08:00:18;;;;;;;49.72;10.43;;;10.00;99.90;;;10.22;100.00;100112.28;5113806;28;20047;-63
2022/02/06 08:02:48;;;;;;;53.95;9.77;;;10.00;99.90;;;10.19;100.00;100082.41;5114347;28;20087;-63
2022/02/06 08:05:18;;;;;;;55.92;10.77;;;10.00;99.90;;;10.18;100.00;100097.38;5113971;28;20157;-63
2022/02/06 08:07:50;;;;;;;48.28;9.48;;;10.00;99.90;;;10.19;100.00;100085.03;5113810;28;20122;-63
2022/02/06 08:10:20;;;;;;;53.90;10.50;;;10.00;99.90;;;10.18;100.00;100100.03;5113875;28;20101;-63
2022/02/06 08:12:54;;;;;;;60.33;12.13;;;10.00;99.90;;;10.16;100.00;100078.06;5114030;28;20040;-63
2022/02/06 08:15:23;;;;;;;55.50;10.20;;;10.00;99.90;;;10.10;100.00;100057.03;5113744;28;20047;-63
2022/02/06 08:17:53;;;;;;;45.97;10.00;;;9.90;99.90;;;9.94;100.00;100024.66;5113851;28;20040;-63
2022/02/06 08:20:22;;;;;;;55.80;11.33;;;9.90;99.90;;;9.97;100.00;100000.81;5113201;28;20048;-63
2022/02/06 08:22:52;;;;;;;51.08;10.90;;;9.90;99.90;;;10.11;100.00;100050.81;5113631;28;20377;-63
2022/02/06 08:25:20;;;;;;;49.92;10.45;;;9.90;99.90;;;10.20;100.00;100034.81;5113372;28;20122;-63
2022/02/06 08:27:49;;;;;;;52.28;10.90;;;10.00;99.90;;;10.17;100.00;100013.72;5129410;27;20497;-63
2022/02/06 08:30:18;;;;;;;52.50;10.50;;;10.00;99.90;;;10.10;100.00;99998.00;5113938;28;20043;-63
2022/02/06 08:32:46;;;;;;;54.60;10.52;;;9.90;99.90;;;10.10;100.00;100005.94;5113620;28;20043;-62
2022/02/06 08:35:16;;;;;;;55.08;11.63;;;9.90;99.90;;;10.11;100.00;99989.16;5113399;28;20052;-63
2022/02/06 08:37:44;;;;;;;51.87;10.80;;;9.90;99.90;;;9.50;100.00;99889.81;5113286;28;20562;-62
2022/02/06 08:40:16;;;;;;;50.15;10.13;;;9.90;99.90;;;10.04;100.00;99954.88;5129018;27;20449;-65
2022/02/06 08:42:46;;;;;;;39.15;8.57;;;9.90;99.90;;;10.06;100.00;99949.59;5113870;28;20055;-64
2022/02/06 08:45:16;;;;;;;45.88;10.60;;;9.90;99.90;;;10.09;100.00;99962.75;5112187;28;20105;-64
2022/02/06 08:47:47;;;;;;;42.58;9.40;;;9.90;99.90;;;10.13;100.00;99958.31;5113327;28;20454;-64
2022/02/06 08:50:17;;;;;;;;;;;9.90;99.90;;;10.05;100.00;99913.50;5113621;28;20051;-64
2022/02/06 08:52:45;;;;;;;48.75;10.18;;;9.90;99.90;;;10.09;100.00;99941.63;5113113;28;19930;-63
2022/02/06 08:55:15;;;;;;;38.85;10.35;;;9.90;99.90;;;10.08;100.00;99934.59;5111554;28;20120;-63
2022/02/06 08:57:47;;;;;;;38.22;9.13;;;9.90;99.90;;;9.30;100.00;99778.41;5113134;28;20122;-63
2022/02/06 09:00:18;;;;;;;42.50;9.32;;;9.90;99.90;;;10.01;100.00;99915.34;5113195;28;20064;-63
2022/02/06 09:02:49;;;;;;;38.40;8.85;;;9.90;99.90;;;10.17;100.00;99891.31;5112953;28;20159;-63
2022/02/06 09:05:20;;;;;;;39.33;9.35;;;10.00;99.90;;;9.97;100.00;99879.31;5112938;28;20070;-63
2022/02/06 09:07:49;;;;;;;36.85;8.00;;;9.90;99.90;;;10.11;100.00;99912.56;5112903;28;20096;-63
2022/02/06 09:10:19;;;;;;;42.28;10.60;;;9.90;99.90;;;9.72;100.00;99837.50;5113058;28;20056;-63
2022/02/06 09:12:52;;;;;;;;;;;9.90;99.90;;;9.42;100.00;99756.22;5113348;28;20044;-62
2022/02/06 09:15:22;;;;;;;39.35;9.65;;;9.90;99.90;;;10.07;100.00;99863.28;5112858;28;19919;-63
2022/02/06 09:17:52;;;;;;;42.55;9.30;;;9.90;99.90;;;10.16;100.00;99876.38;5112923;28;20059;-62
2022/02/06 09:20:23;;;;;;;40.80;8.95;;;9.90;99.90;;;10.13;100.00;99861.44;5112708;28;20527;-61
2022/02/06 09:22:53;;;;;;;41.10;8.80;;;10.00;99.90;;;10.12;100.00;99846.50;5112861;28;20043;-62
2022/02/06 09:25:21;;;;;;;41.72;9.00;;;10.00;99.90;;;10.16;100.00;99863.16;5112796;28;20039;-64
2022/02/06 09:27:50;;;;;;;44.90;10.40;;;10.00;99.90;;;10.14;100.00;99854.38;5112635;28;20059;-62
2022/02/06 09:30:25;;;;;;;46.30;10.13;;;9.90;99.90;;;9.96;100.00;99808.91;5113891;28;20086;-63
2022/02/06 09:35:24;;;;;;;41.47;9.05;;;10.00;99.90;;;9.96;100.00;99808.91;5116859;27;20035;-63
2022/02/06 09:37:53;;;;;;;43.95;9.82;;;10.00;99.90;;;10.15;100.00;99842.91;5116881;28;20040;-63
2022/02/06 09:40:27;;;;;;;39.83;8.68;;;9.90;99.90;;;10.15;100.00;99814.72;5116629;27;20031;-63
2022/02/06 09:42:58;;;;;;;40.03;9.38;;;10.00;99.90;;;9.50;100.00;99683.06;5116725;28;20400;-64
2022/02/06 09:45:28;;;;;;;35.60;8.55;;;9.90;99.90;;;10.09;100.00;99803.34;5116670;28;20051;-62
2022/02/06 09:48:00;;;;;;;45.10;10.15;;;10.00;99.90;;;10.15;100.00;99795.34;5116554;28;20040;-62
2022/02/06 09:50:30;;;;;;;32.00;8.02;;;10.00;99.90;;;10.15;100.00;99801.50;5115386;28;20054;-62
2022/02/06 09:53:00;;;;;;;30.00;8.20;;;10.00;99.90;;;10.15;100.00;99776.84;5116424;27;20040;-63
2022/02/06 09:55:29;;;;;;;42.38;8.95;;;10.00;99.90;;;10.16;100.00;99779.50;5116586;28;20400;-62
2022/02/06 09:58:11;;;;;;;44.08;10.13;;;10.00;99.90;;;10.16;100.00;99790.06;5116696;28;20135;-62
2022/02/06 10:00:42;;;;;;;40.22;8.95;;;10.00;99.90;;;10.19;100.00;99786.47;5116254;28;20100;-63
2022/02/06 10:03:14;;;;;;;39.30;9.38;;;10.00;99.90;;;10.24;100.00;99774.03;5132126;27;20108;-62
2022/02/06 10:05:46;;;;;;;49.20;9.60;;;10.00;99.90;;;10.16;100.00;99800.63;5116132;28;20039;-62
2022/02/06 10:08:25;;;;;;;48.92;10.82;;;10.00;99.90;;;10.11;100.00;99740.81;5116007;28;20110;-62
2022/02/06 10:11:00;;;;;;;49.45;9.85;;;10.00;99.90;;;9.98;100.00;99696.16;5116184;28;20093;-63
2022/02/06 10:13:28;;;;;;;50.25;10.77;;;10.00;99.90;;;10.20;100.00;99760.00;5116011;28;20076;-62
2022/02/06 10:15:57;;;;;;;52.25;10.75;;;10.00;99.90;;;10.17;100.00;99727.50;5115792;28;20097;-63
2022/02/06 10:18:28;;;;;;;46.88;10.25;;;10.00;99.90;;;10.20;100.00;99714.22;5131857;27;20052;-63
2022/02/06 10:20:57;;;;;;;;;;;10.00;99.90;;;10.21;100.00;99718.59;5116363;28;20524;-63
2022/02/06 10:23:32;;;;;;;45.43;10.00;;;10.00;99.90;;;10.16;100.00;99684.38;5115795;28;19923;-61
2022/02/06 10:26:08;;;;;;;65.32;11.23;;;10.00;99.90;;;10.13;100.00;99725.81;5115823;28;20046;-61
2022/02/06 10:28:42;;;;;;;60.50;13.38;;;10.00;99.90;;;10.23;100.00;99730.88;5115725;28;20051;-60
2022/02/06 10:31:11;;;;;;;55.97;11.80;;;10.00;99.90;;;10.25;100.00;99741.41;5115864;28;20039;-59
2022/02/06 10:33:47;;;;;;;55.08;10.57;;;10.10;99.90;;;10.21;100.00;99718.59;5115673;28;20484;-61
2022/02/06 10:36:30;;;;;;;57.97;12.35;;;10.10;99.90;;;10.22;100.00;99709.78;5115653;28;20477;-61
2022/02/06 10:39:03;;;;;;;65.28;13.93;;;10.00;99.90;;;10.19;100.00;99688.69;5115538;28;20051;-61
2022/02/06 10:41:32;;;;;;;72.43;11.80;;;10.00;99.90;;;10.19;100.00;99705.44;5115199;27;20089;-61
2022/02/06 10:44:04;;;;;;;64.07;12.30;;;10.00;99.90;;;9.96;100.00;99676.84;5115599;28;20039;-60
2022/02/06 10:46:36;;;;;;;65.55;12.75;;;10.00;99.90;;;10.30;100.00;99732.47;5115475;28;20047;-60
2022/02/06 10:49:13;;;;;;;66.45;12.55;;;10.10;99.90;;;10.30;100.00;99748.34;5115420;28;20036;-59
2022/02/06 10:51:48;;;;;;;62.38;13.43;;;10.10;99.90;;;10.35;100.00;99799.34;5115369;28;20051;-59
2022/02/06 10:54:26;;;;;;;34.67;8.23;;;10.20;99.90;;;9.61;100.00;99824.50;5115181;28;20048;-60
2022/02/06 10:57:05;;;;;;;17.73;4.90;;;9.80;99.90;;;8.98;98.83;99801.81;5115154;28;20497;-61
2022/02/06 10:59:49;;;;;;;30.13;6.68;;;9.10;99.90;;;8.77;98.53;99836.38;5113741;28;20051;-61
2022/02/06 11:02:27;;;;;;;31.63;7.50;;;8.80;99.90;;;8.89;99.09;99860.81;5113918;28;20056;-60
2022/02/06 11:05:08;;;;;;;35.70;7.40;;;8.80;99.90;;;8.75;98.94;99856.66;5114947;28;20508;-60
2022/02/06 11:07:38;;;;;;;30.15;5.93;;;8.60;99.90;;;8.61;99.30;99875.28;5115089;28;20055;-59
2022/02/06 11:10:11;;;;;;;25.55;6.32;;;8.50;99.90;;;8.28;98.55;99832.66;5114970;28;20412;-65
2022/02/06 11:12:42;;;;;;;21.75;5.25;;;8.40;99.90;;;8.34;97.89;99856.28;5115073;28;20100;-60
2022/02/06 11:15:30;;;;;;;20.05;4.97;;;8.30;99.90;;;8.35;97.39;99868.53;5114898;28;20058;-60
2022/02/06 11:18:09;;;;;;;21.80;4.70;;;8.30;99.90;;;8.45;96.88;99896.53;5114704;28;20499;-60
2022/02/06 11:20:39;;;;;;;18.65;5.80;;;8.30;99.90;;;8.47;97.56;99897.41;5114561;28;20451;-60
2022/02/06 11:23:09;;;;;;;25.75;5.03;;;8.40;99.90;;;8.49;97.66;99900.88;5113600;28;20458;-60
2022/02/06 11:25:37;;;;;;;18.40;4.70;;;8.30;99.90;;;8.39;97.69;99893.97;5113502;28;20171;-60
2022/02/06 11:28:07;;;;;;;23.30;5.15;;;8.30;99.90;;;8.41;98.51;99895.72;5114440;28;20301;-60
2022/02/06 11:30:36;;;;;;;24.67;5.30;;;8.30;99.90;;;8.58;98.63;99908.66;5114561;28;20135;-60
2022/02/06 11:33:05;;;;;;;31.38;6.15;;;8.40;99.90;;;8.48;99.04;99912.34;5114272;28;20553;-59
2022/02/06 11:35:35;;;;;;;28.40;5.78;;;8.40;99.90;;;8.57;99.33;99913.09;5114604;28;20404;-59
2022/02/06 11:44:44;;;;;;;29.88;5.15;;;8.50;99.90;;;8.70;96.75;99853.19;5113980;28;20092;-61
2022/02/06 11:47:20;;;;;;;23.15;5.97;;;8.50;99.90;;;8.52;96.29;99838.47;5114264;28;20039;-61
2022/02/06 11:49:51;;;;;;;24.10;5.10;;;8.50;99.90;;;8.72;95.83;99883.03;5113935;28;20047;-61
2022/02/06 11:52:20;;;;;;;23.00;4.80;;;8.60;99.90;;;8.82;95.54;99890.81;5114111;28;20048;-61
2022/02/06 11:54:52;;;;;;;28.58;5.82;;;8.60;99.90;;;8.80;95.37;99889.06;5111652;28;20373;-60